Latest Weather Observations for Kingscote

IDS60801

Issued at 7:32 pm CDT Sunday 29 March 2020 (issued every 10 minutes, with the page automatically refreshed every 10 minutes)

About weather observations | Map of weather stations | Latest weather observations for SA | Other Formats
Station Details ID: 022841 Name: KINGSCOTE AERO Lat: -35.71 Lon: 137.52 Height: 6.23 m
Data from the previous 72 hours. | See also: Recent months at Kingscote
Date/Time
CDT
Temp
°C
App
Temp
°C
Dew
Point
°C
Rel
Hum
%
Delta-T
°C
Wind Press
QNH
hPa
Press
MSL
hPa
Rain since
9am
mm
Dir  Spd
km/h
Gust
km/h
Spd
kts
Gust
kts
29/07:30pm 19.2 16.2 9.1 52 5.3 W 15 22 8 12 1012.2 1012.2 0.0
29/07:00pm 20.8 17.1 9.4 48 6.1 W 19 24 10 13 1011.5 1011.5 0.0
29/06:30pm 21.7 17.8 10.8 50 6.0 WNW 22 30 12 16 1010.9 1010.9 0.0
29/06:00pm 22.6 18.4 11.0 48 6.4 WNW 24 33 13 18 1010.5 1010.5 0.0
29/05:30pm 24.0 20.2 11.0 44 7.3 WNW 22 32 12 17 1010.1 1010.1 0.0
29/05:00pm 24.2 19.3 10.1 41 7.8 WNW 26 33 14 18 1009.8 1009.8 0.0
29/04:30pm 24.7 19.3 10.9 42 7.7 WNW 30 41 16 22 1009.6 1009.6 0.0
29/04:00pm 25.2 20.5 10.6 40 8.1 WNW 26 37 14 20 1009.3 1009.3 0.0
29/03:30pm 25.1 20.2 11.3 42 7.8 WNW 28 37 15 20 1009.1 1009.1 0.0
29/03:00pm 25.0 20.2 11.6 43 7.6 WNW 28 37 15 20 1009.1 1009.1 0.0
29/02:30pm 25.2 21.3 12.1 44 7.5 WNW 24 35 13 19 1009.2 1009.2 0.0
29/02:00pm 24.2 20.5 12.8 49 6.6 WNW 24 35 13 19 1009.4 1009.4 0.0
29/01:30pm 24.8 22.1 13.0 47 6.9 W 19 30 10 16 1009.6 1009.6 0.0
29/01:00pm 24.8 21.6 13.0 47 6.8 WNW 22 37 12 20 1009.6 1009.6 0.0
29/12:30pm 24.2 20.8 13.7 52 6.2 WNW 24 32 13 17 1009.7 1009.7 0.0
29/12:00pm 24.2 22.1 14.6 55 5.7 W 19 28 10 15 1009.8 1009.8 0.0
29/11:30am 23.0 20.9 13.5 55 5.5 W 17 28 9 15 1009.9 1009.9 0.0
29/11:00am 22.8 20.0 12.7 53 5.8 WNW 19 24 10 13 1010.2 1010.2 0.0
29/10:30am 21.6 18.7 13.0 58 4.9 W 20 28 11 15 1010.1 1010.1 0.0
29/10:00am 20.7 18.6 13.6 64 4.1 WSW 17 26 9 14 1010.0 1010.0 0.0
29/09:30am 20.3 18.6 13.7 66 3.8 W 15 19 8 10 1009.9 1009.9 0.0
29/09:00am 19.6 18.5 14.4 72 3.0 WSW 13 19 7 10 1009.5 1009.5 0.0
29/08:30am 18.1 18.1 14.2 78 2.2 W 7 11 4 6 1008.7 1008.7 0.0
29/08:00am 18.4 16.0 14.3 77 2.4 WSW 20 30 11 16 1008.2 1008.2 0.0
29/07:40am 18.7 16.9 16.1 85 1.5 W 20 26 11 14 1008.1 1008.1 0.0
29/07:30am 18.8 16.8 16.4 86 1.4 W 22 32 12 17 1007.8 1007.8 0.0
29/07:00am 19.0 17.5 16.4 85 1.6 WNW 19 24 10 13 1007.6 1007.6 0.0
29/06:56am 19.1 17.7 16.5 85 1.6 W 19 24 10 13 1007.6 1007.6 0.0
29/06:30am 19.1 18.9 15.6 80 2.1 NW 11 15 6 8 1006.7 1006.7 0.0
29/06:00am 19.4 17.9 15.3 77 2.4 W 17 22 9 12 1006.6 1006.6 0.0
29/05:30am 20.1 17.8 14.2 69 3.4 N 19 28 10 15 1004.9 1004.9 0.0
29/05:00am 21.4 17.2 12.5 57 5.0 NW 26 33 14 18 1006.9 1006.9 0.0
29/04:30am 22.4 19.3 10.2 46 6.7 NNW 17 24 9 13 1006.0 1006.0 0.0
29/04:00am 22.9 18.8 7.8 38 7.9 NW 19 24 10 13 1005.7 1005.7 0.0
29/03:30am 23.2 18.6 5.6 32 8.9 NNW 19 28 10 15 1005.5 1005.5 0.0
29/03:00am 23.0 19.1 5.4 32 8.9 N 15 22 8 12 1005.2 1005.2 0.0
29/02:30am 22.6 19.8 5.1 32 8.7 NNE 9 11 5 6 1005.8 1005.8 0.0
29/02:00am 20.7 18.8 7.7 43 6.7 ENE 7 9 4 5 1006.1 1006.1 0.0
29/01:30am 19.0 19.3 10.8 59 4.5 CALM 0 0 0 0 1006.6 1006.6 0.0
29/01:00am 19.9 20.1 11.7 59 4.5 SE 2 7 1 4 1006.6 1006.6 0.0
29/12:30am 17.7 18.5 12.6 72 2.8 CALM 0 0 0 0 1007.3 1007.3 0.0
29/12:00am 17.5 16.9 12.4 72 2.8 SE 7 9 4 5 1007.7 1007.7 0.0
 
Date/Time
CDT
Temp
°C
App
Temp
°C
Dew
Point
°C
Rel
Hum
%
Delta-T
°C
Wind Press
QNH
hPa
Press
MSL
hPa
Rain since
9am
mm
Dir  Spd
km/h
Gust
km/h
Spd
kts
Gust
kts
28/11:30pm 18.8 18.9 11.4 62 4.1 NNW 2 7 1 4 1008.2 1008.2 0.0
28/11:00pm 21.2 21.0 12.9 59 4.7 N 6 9 3 5 1008.2 1008.2 0.0
28/10:30pm 21.6 19.6 12.7 57 5.1 NNE 15 22 8 12 1008.5 1008.5 0.0
28/10:00pm 20.1 19.8 12.8 63 4.1 NNE 6 13 3 7 1008.6 1008.6 0.0
28/09:30pm 18.3 18.6 12.3 68 3.3 N 2 7 1 4 1008.9 1008.9 0.0
28/09:00pm 18.4 17.8 12.4 68 3.3 E 7 9 4 5 1009.5 1009.5 0.0
28/08:30pm 19.7 20.8 13.4 67 3.6 CALM 0 6 0 3 1010.0 1010.0 0.0
28/08:00pm 19.5 18.7 11.0 58 4.6 SSE 6 9 3 5 1010.2 1010.2 0.0
28/07:30pm 22.1 20.9 9.6 45 6.7 SE 6 7 3 4 1010.4 1010.4 0.0
28/07:00pm 23.2 21.5 11.3 47 6.6 E 11 13 6 7 1010.3 1010.3 0.0
28/06:30pm 26.0 22.6 6.1 28 10.3 NE 13 17 7 9 1010.5 1010.5 0.0
28/06:00pm 26.9 23.1 4.0 23 11.5 N 13 19 7 10 1010.8 1010.8 0.0
28/05:30pm 28.3 23.7 3.9 21 12.3 N 17 24 9 13 1011.0 1011.0 0.0
28/05:00pm 28.8 24.2 3.6 20 12.7 N 17 22 9 12 1011.1 1011.1 0.0
28/04:30pm 29.0 23.7 3.1 19 13.0 N 20 28 11 15 1011.2 1011.2 0.0
28/04:00pm 29.0 23.7 3.1 19 13.0 N 20 32 11 17 1011.4 1011.4 0.0
28/03:30pm 28.8 23.2 3.6 20 12.7 N 22 33 12 18 1011.7 1011.7 0.0
28/03:00pm 29.0 23.2 4.5 21 12.6 N 24 33 13 18 1012.0 1012.0 0.0
28/02:30pm 28.5 22.6 4.1 21 12.4 N 24 35 13 19 1012.2 1012.2 0.0
28/02:00pm 28.6 23.8 7.2 26 11.5 N 22 32 12 17 1012.6 1012.6 0.0
28/01:30pm 27.9 22.6 4.9 23 11.8 N 22 32 12 17 1013.1 1013.1 0.0
28/01:00pm 27.4 22.3 6.2 26 11.1 N 22 32 12 17 1013.6 1013.6 0.0
28/12:30pm 26.1 21.8 7.7 31 9.8 N 20 28 11 15 1014.1 1014.1 0.0
28/12:00pm 26.0 22.4 8.5 33 9.4 N 17 24 9 13 1014.5 1014.5 0.0
28/11:30am 25.3 22.1 10.0 38 8.4 N 17 22 9 12 1014.9 1014.9 0.0
28/11:00am 23.8 20.3 8.6 38 8.1 NNE 17 26 9 14 1015.2 1015.2 0.0
28/10:30am 22.9 19.5 10.7 46 6.7 N 19 24 10 13 1015.4 1015.4 0.0
28/10:00am 20.7 19.3 14.4 67 3.7 NNE 15 20 8 11 1015.4 1015.4 0.0
28/09:30am 19.0 18.4 14.7 76 2.5 ENE 11 15 6 8 1015.6 1015.6 0.0
28/09:00am 15.0 15.1 10.2 73 2.5 CALM 0 2 0 1 1015.7 1015.7 0.0
28/08:30am 10.9 10.6 8.7 86 1.1 CALM 0 0 0 0 1015.7 1015.7 0.0
28/08:00am 7.5 5.3 6.1 91 0.6 WSW 7 9 4 5 1015.5 1015.5 0.0
28/07:30am 7.1 6.0 4.9 86 1.0 CALM 0 0 0 0 1015.3 1015.3 0.0
28/07:00am 6.9 5.8 4.9 87 0.9 CALM 0 0 0 0 1015.5 1015.5 0.0
28/06:30am 6.7 5.5 4.4 85 1.0 CALM 0 0 0 0 1015.3 1015.3 0.0
28/06:00am 7.2 6.0 4.5 83 1.2 CALM 0 0 0 0 1015.3 1015.3 0.0
28/05:30am 7.3 6.2 5.3 87 0.9 CALM 0 0 0 0 1015.4 1015.4 0.0
28/05:00am 7.1 5.9 4.8 85 1.0 CALM 0 0 0 0 1015.5 1015.5 0.0
28/04:30am 7.4 6.2 4.7 83 1.2 CALM 0 0 0 0 1015.5 1015.5 0.0
28/04:00am 7.9 7.0 6.2 89 0.8 CALM 0 0 0 0 1015.7 1015.7 0.0
28/03:30am 7.3 6.3 5.4 88 0.8 CALM 0 0 0 0 1016.0 1016.0 0.0
28/03:00am 7.7 6.5 4.7 81 1.3 CALM 0 0 0 0 1016.3 1016.3 0.0
28/02:30am 7.9 6.9 5.4 84 1.1 CALM 0 0 0 0 1016.6 1016.6 0.0
28/02:00am 8.4 7.6 6.4 87 0.9 CALM 0 0 0 0 1017.0 1017.0 0.0
28/01:30am 8.5 7.5 5.6 82 1.3 CALM 0 0 0 0 1017.1 1017.1 0.0
28/01:00am 8.6 7.8 6.6 87 0.9 CALM 0 0 0 0 1017.4 1017.4 0.0
28/12:30am 8.3 7.4 5.9 85 1.1 CALM 0 0 0 0 1017.6 1017.6 0.0
28/12:00am 9.5 8.8 7.1 85 1.1 CALM 0 0 0 0 1017.9 1017.9 0.0
 
Date/Time
CDT
Temp
°C
App
Temp
°C
Dew
Point
°C
Rel
Hum
%
Delta-T
°C
Wind Press
QNH
hPa
Press
MSL
hPa
Rain since
9am
mm
Dir  Spd
km/h
Gust
km/h
Spd
kts
Gust
kts
27/11:30pm 9.9 8.3 7.8 87 1.0 WSW 6 7 3 4 1018.2 1018.2 0.0
27/11:00pm 10.0 8.6 7.1 82 1.4 WNW 4 11 2 6 1018.5 1018.5 0.0
27/10:30pm 11.6 11.3 8.6 82 1.5 CALM 0 0 0 0 1018.6 1018.6 0.0
27/10:00pm 12.9 12.4 9.2 78 1.9 NW 2 6 1 3 1018.8 1018.8 0.0
27/09:30pm 12.8 11.4 9.4 80 1.7 SW 7 7 4 4 1019.0 1019.0 0.0
27/09:00pm 13.8 13.1 10.2 79 1.9 ENE 4 7 2 4 1018.9 1018.9 0.0
27/08:30pm 16.8 16.3 12.7 77 2.3 ENE 7 7 4 4 1018.7 1018.7 0.0
27/08:00pm 17.9 17.2 12.1 69 3.2 ENE 7 9 4 5 1018.5 1018.5 0.0
27/07:30pm 19.0 17.1 11.8 63 4.0 ENE 13 17 7 9 1018.4 1018.4 0.0
27/07:00pm 20.6 18.4 10.7 53 5.4 ENE 13 15 7 8 1018.3 1018.3 0.0
27/06:30pm 22.5 19.5 9.3 43 7.1 ENE 15 17 8 9 1018.2 1018.2 0.0
27/06:00pm 24.0 20.7 8.0 36 8.4 ENE 15 17 8 9 1018.3 1018.3 0.0
27/05:30pm 24.8 21.0 7.4 33 9.1 E 17 22 9 12 1018.4 1018.4 0.0
27/05:00pm 25.7 21.3 7.3 31 9.7 E 20 26 11 14 1018.6 1018.6 0.0
27/04:30pm 26.1 23.0 9.0 34 9.3 NE 15 26 8 14 1018.8 1018.8 0.0
27/04:00pm 26.0 21.6 4.5 25 10.8 NE 17 26 9 14 1019.1 1019.1 0.0
27/03:30pm 25.8 21.5 5.4 27 10.4 NNE 17 28 9 15 1019.4 1019.4 0.0
27/03:00pm 26.5 22.6 7.0 29 10.3 NE 17 24 9 13 1019.6 1019.6 0.0
27/02:30pm 25.4 22.3 7.1 31 9.6 NE 13 24 7 13 1019.9 1019.9 0.0
27/02:00pm 25.0 22.0 6.2 30 9.7 NNE 11 20 6 11 1020.5 1020.5 0.0
27/01:30pm 25.0 21.8 6.7 31 9.5 NNE 13 20 7 11 1020.8 1020.8 0.0
27/01:00pm 24.5 21.4 8.9 37 8.4 ENE 15 22 8 12 1021.2 1021.2 0.0
27/12:30pm 24.0 22.4 8.8 38 8.1 ENE 7 13 4 7 1021.5 1021.5 0.0
27/12:00pm 23.7 21.7 10.0 42 7.5 E 11 17 6 9 1021.9 1021.9 0.0
27/11:30am 22.1 21.0 10.6 48 6.3 ENE 7 11 4 6 1022.2 1022.2 0.0
27/11:00am 20.1 19.7 12.3 61 4.4 ENE 6 9 3 5 1022.4 1022.4 0.0
27/10:30am 18.3 19.0 13.4 73 2.8 SE 2 7 1 4 1022.7 1022.7 0.0
27/10:00am 16.3 17.6 14.0 86 1.3 CALM 0 0 0 0 1022.7 1022.7 0.0
27/09:30am 13.8 14.8 13.2 96 0.3 CALM 0 0 0 0 1022.9 1022.9 0.0
27/09:00am 11.6 12.0 11.1 97 0.3 CALM 0 0 0 0 1022.8 1022.8 0.0
27/08:30am 9.3 9.0 8.8 97 0.2 CALM 0 0 0 0 1022.8 1022.8 0.0
27/08:28am 9.0 8.7 8.6 97 0.2 CALM 0 0 0 0 1022.9 1022.9 0.0
27/08:00am 6.2 5.2 5.6 96 0.3 CALM 0 0 0 0 1022.7 1022.7 0.0
27/07:30am 7.2 6.5 6.8 97 0.2 CALM 0 0 0 0 1022.4 1022.4 0.0
27/07:00am 6.7 5.8 6.1 96 0.3 CALM 0 0 0 0 1022.3 1022.3 0.0
27/06:59am 6.7 5.8 6.1 96 0.3 CALM 0 0 0 0 1022.3 1022.3 0.0
27/06:52am 7.1 6.3 6.5 96 0.3 CALM 0 0 0 0 1022.2 1022.2 0.0
27/06:30am 7.1 6.3 6.5 96 0.3 CALM 0 0 0 0 1022.3 1022.3 0.0
27/06:21am 7.0 6.2 6.4 96 0.3 CALM 0 0 0 0 1022.3 1022.3 0.0
27/06:01am 7.6 6.9 7.0 96 0.3 CALM 0 0 0 0 1022.2 1022.2 0.0
27/06:00am 7.5 6.8 6.9 96 0.3 CALM 0 0 0 0 1022.2 1022.2 0.0
27/05:30am 6.7 5.8 6.0 95 0.3 CALM 0 0 0 0 1022.2 1022.2 0.0
27/05:00am 6.9 6.0 6.2 95 0.3 CALM 0 0 0 0 1022.2 1022.2 0.0
27/04:30am 8.5 8.0 7.9 96 0.3 CALM 0 0 0 0 1022.2 1022.2 0.0
27/04:00am 7.8 7.1 7.1 95 0.3 CALM 0 0 0 0 1022.3 1022.3 0.0
27/03:30am 7.9 7.2 7.1 95 0.4 CALM 0 0 0 0 1022.6 1022.6 0.0
27/03:00am 7.8 7.1 7.1 95 0.3 CALM 0 0 0 0 1022.9 1022.9 0.0
27/02:30am 7.6 6.8 6.5 93 0.5 CALM 0 0 0 0 1023.1 1023.1 0.0
27/02:00am 8.5 7.9 7.4 93 0.5 CALM 0 0 0 0 1023.4 1023.4 0.0
27/01:30am 9.1 8.6 8.0 93 0.5 CALM 0 0 0 0 1023.4 1023.4 0.0
27/01:00am 9.3 8.9 8.1 92 0.6 CALM 0 0 0 0 1023.6 1023.6 0.0
27/12:30am 9.5 9.1 8.1 91 0.7 CALM 0 0 0 0 1023.8 1023.8 0.0
27/12:00am 9.9 8.9 8.7 92 0.6 S 4 6 2 3 1023.9 1023.9 0.0
 
Date/Time
CDT
Temp
°C
App
Temp
°C
Dew
Point
°C
Rel
Hum
%
Delta-T
°C
Wind Press
QNH
hPa
Press
MSL
hPa
Rain since
9am
mm
Dir  Spd
km/h
Gust
km/h
Spd
kts
Gust
kts
26/11:30pm 9.8 8.0 7.9 88 0.9 S 7 7 4 4 1024.1 1024.1 0.0
26/11:00pm 11.6 10.2 9.7 88 1.0 SSE 7 9 4 5 1024.1 1024.1 0.0
26/10:30pm 12.3 11.1 10.4 88 1.0 SSE 7 9 4 5 1024.2 1024.2 0.0
26/10:00pm 12.8 11.7 10.5 86 1.2 SE 7 9 4 5 1024.1 1024.1 0.0
26/09:30pm 13.3 11.8 10.7 84 1.4 SE 9 11 5 6 1024.1 1024.1 0.0
26/09:00pm 13.9 11.8 11.1 83 1.5 SE 13 15 7 8 1024.2 1024.2 0.0
26/08:30pm 14.3 12.2 11.1 81 1.7 SE 13 17 7 9 1024.1 1024.1 0.0
26/08:00pm 14.5 12.3 10.7 78 2.0 SE 13 17 7 9 1024.1 1024.1 0.0

Other formats

Comma delimited format used in spreadsheet applications
http://www.bom.gov.au/fwo/IDS60801/IDS60801.95807.axf

JavaScript Object Notation format (JSON) in row-major order
http://www.bom.gov.au/fwo/IDS60801/IDS60801.95807.json

Data quality

Most of these data are generated automatically and are frequently updated. Quality checks on data are not normally performed. It is possible for incorrect values to appear. Refer to information at About Latest Weather Observations and please check the disclaimer before using these data.